Time;durP1;ratioP1;P1;durP2;ratioP2;P2;SDS_P1;SDS_P2;PMS_P1;PMS_P2;Temp;Humidity;BMP_temperature;BMP_pressure;BME280_temperature;BME280_humidity;BME280_pressure;Samples;Min_cycle;Max_cycle;Signal;HPM_P1;HPM_P2
2023/12/06 00:01:18;;;;;;;41.42;24.95;;;;;;;2.07;100.00;100938.91;5110617;28;20082;-58
2023/12/06 00:03:43;;;;;;;44.45;24.48;;;;;;;1.99;100.00;100925.97;5101655;28;20016;-58
2023/12/06 00:06:09;;;;;;;45.05;24.30;;;;;;;2.07;100.00;100938.91;5110776;28;20063;-58
2023/12/06 00:08:34;;;;;;;45.95;25.40;;;;;;;2.07;100.00;100933.66;5110910;28;20031;-58
2023/12/06 00:11:00;;;;;;;47.50;24.33;;;;;;;2.04;100.00;100936.34;5110875;28;20092;-58
2023/12/06 00:13:25;;;;;;;47.72;24.63;;;;;;;2.13;100.00;100948.38;5097923;28;20035;-58
2023/12/06 00:15:51;;;;;;;42.97;25.13;;;;;;;2.12;100.00;100946.63;5110149;28;20082;-58
2023/12/06 00:18:16;;;;;;;43.55;23.00;;;;;;;2.11;100.00;100950.16;5110394;28;20057;-58
2023/12/06 00:20:42;;;;;;;46.03;25.20;;;;;;;2.10;100.00;100945.84;5110539;28;20027;-58
2023/12/06 00:23:07;;;;;;;44.10;24.63;;;;;;;2.10;100.00;100954.56;5110333;28;20032;-58
2023/12/06 00:25:32;;;;;;;46.80;25.45;;;;;;;2.09;100.00;100951.97;5110836;28;20015;-58
2023/12/06 00:27:58;;;;;;;46.97;25.75;;;;;;;2.12;100.00;100957.13;5110683;28;20098;-58
2023/12/06 00:30:23;;;;;;;42.93;25.33;;;;;;;2.08;100.00;100960.75;5110458;28;20551;-58
2023/12/06 00:32:48;;;;;;;45.10;23.87;;;;;;;2.08;100.00;100955.50;5110567;28;20104;-58
2023/12/06 00:35:16;;;;;;;43.53;25.20;;;;;;;2.07;100.00;100967.75;5111084;28;20407;-58
2023/12/06 00:37:41;;;;;;;43.37;23.47;;;;;;;2.08;100.00;100966.84;5099347;28;20028;-58
2023/12/06 00:40:07;;;;;;;46.03;24.17;;;;;;;2.09;100.00;100971.22;5081061;28;20038;-58
2023/12/06 00:42:33;;;;;;;43.90;25.53;;;;;;;2.10;100.00;100972.06;5110702;28;20157;-58
2023/12/06 00:44:58;;;;;;;41.85;23.20;;;;;;;2.11;100.00;100973.78;5110648;28;20763;-58
2023/12/06 00:47:24;;;;;;;44.03;23.57;;;;;;;2.09;100.00;100984.31;5111001;28;20033;-58
2023/12/06 00:49:49;;;;;;;44.15;24.20;;;;;;;2.09;100.00;100983.44;5110745;28;20493;-58
2023/12/06 00:52:15;;;;;;;39.88;24.05;;;;;;;2.10;100.00;100985.19;5112338;28;20040;-58
2023/12/06 00:54:42;;;;;;;45.08;24.45;;;;;;;2.10;100.00;100986.03;5114420;28;20020;-58
2023/12/06 00:57:08;;;;;;;42.90;23.93;;;;;;;2.11;100.00;100982.50;5114400;28;20031;-58
2023/12/06 00:59:33;;;;;;;40.03;22.80;;;;;;;2.08;100.00;100985.19;5113153;28;20023;-58
2023/12/06 01:01:58;;;;;;;37.22;21.90;;;;;;;2.08;100.00;100989.59;5114049;28;20079;-58
2023/12/06 01:04:24;;;;;;;43.95;23.85;;;;;;;2.10;100.00;100990.44;5102992;28;20030;-58
2023/12/06 01:06:51;;;;;;;41.95;23.02;;;;;;;2.11;100.00;100998.25;5113037;28;20066;-58
2023/12/06 01:09:17;;;;;;;37.33;22.17;;;;;;;2.03;100.00;100990.59;5101090;28;20084;-58
2023/12/06 01:11:42;;;;;;;38.08;23.73;;;;;;;2.10;100.00;101003.53;5102690;28;20090;-58
2023/12/06 01:14:07;;;;;;;42.03;22.30;;;;;;;2.12;100.00;101007.84;5097792;28;20103;-58
2023/12/06 01:16:33;;;;;;;42.83;22.80;;;;;;;2.12;100.00;101006.97;5113448;28;20103;-58
2023/12/06 01:18:58;;;;;;;34.90;21.13;;;;;;;2.13;100.00;101013.97;5113785;28;20580;-58
2023/12/06 01:21:24;;;;;;;36.67;21.73;;;;;;;2.11;100.00;101013.97;5113424;28;20024;-58
2023/12/06 01:23:49;;;;;;;40.38;20.92;;;;;;;2.11;100.00;101015.75;5113408;28;20027;-58
2023/12/06 01:26:14;;;;;;;36.30;21.60;;;;;;;2.08;100.00;101008.81;5114035;28;20027;-58
2023/12/06 01:28:40;;;;;;;37.80;20.65;;;;;;;2.11;100.00;101027.09;5110620;28;20080;-58
2023/12/06 01:31:05;;;;;;;32.58;19.92;;;;;;;2.11;100.00;101026.25;5113034;28;20106;-58
2023/12/06 01:33:31;;;;;;;33.75;19.77;;;;;;;2.10;100.00;101032.41;5112714;28;20019;-58
2023/12/06 01:35:56;;;;;;;36.95;21.40;;;;;;;2.07;100.00;101025.47;5113260;28;20028;-58
2023/12/06 01:38:22;;;;;;;40.58;20.58;;;;;;;2.09;100.00;101031.53;5113483;28;20422;-58
2023/12/06 01:40:49;;;;;;;36.33;20.52;;;;;;;2.07;100.00;101032.47;5113512;28;20390;-58
2023/12/06 01:43:15;;;;;;;34.92;21.25;;;;;;;2.07;100.00;101040.34;5112871;28;20381;-58
2023/12/06 01:45:40;;;;;;;33.45;19.95;;;;;;;2.10;100.00;101035.03;5113015;28;20027;-58
2023/12/06 01:48:07;;;;;;;36.00;21.13;;;;;;;2.09;100.00;101044.66;5100923;28;20038;-58
2023/12/06 01:50:33;;;;;;;36.60;20.30;;;;;;;2.09;100.00;101049.91;5112423;28;20089;-58
2023/12/06 01:53:00;;;;;;;32.38;19.73;;;;;;;2.11;100.00;101049.84;5100615;28;20046;-58
2023/12/06 01:55:26;;;;;;;36.45;19.83;;;;;;;2.05;100.00;101043.84;5112696;28;20030;-58
2023/12/06 01:57:52;;;;;;;34.75;19.88;;;;;;;2.10;100.00;101053.38;5112963;28;20019;-58
2023/12/06 02:00:18;;;;;;;29.75;18.98;;;;;;;2.04;100.00;101044.75;5111829;28;20031;-58
2023/12/06 02:02:46;;;;;;;31.90;19.52;;;;;;;2.06;100.00;101036.88;5111944;28;20020;-58
2023/12/06 02:05:14;;;;;;;32.78;19.83;;;;;;;2.13;100.00;101054.16;5110630;28;20376;-58
2023/12/06 02:07:41;;;;;;;29.98;18.95;;;;;;;2.11;100.00;101050.72;5112448;28;20064;-58
2023/12/06 02:10:07;;;;;;;30.42;18.52;;;;;;;2.14;100.00;101055.03;5098143;28;20031;-58
2023/12/06 02:12:32;;;;;;;30.63;19.20;;;;;;;2.14;100.00;101060.28;5112924;28;20488;-58
2023/12/06 02:14:59;;;;;;;29.27;18.90;;;;;;;2.12;100.00;101064.69;5111993;28;20025;-58
2023/12/06 02:17:25;;;;;;;32.72;19.95;;;;;;;2.15;100.00;101065.50;5112794;28;20019;-58
2023/12/06 02:19:52;;;;;;;29.73;17.60;;;;;;;2.10;100.00;101058.63;5111513;28;20502;-58
2023/12/06 02:22:18;;;;;;;31.27;18.45;;;;;;;2.19;100.00;101074.13;5112479;28;20027;-58
2023/12/06 02:24:45;;;;;;;30.15;18.20;;;;;;;2.20;100.00;101074.09;5112529;28;20094;-58
2023/12/06 02:27:11;;;;;;;29.77;19.77;;;;;;;2.17;100.00;101055.78;5102510;28;20027;-58
2023/12/06 02:29:37;;;;;;;27.42;17.50;;;;;;;2.20;100.00;101062.75;5111879;28;20028;-58
2023/12/06 02:32:02;;;;;;;26.97;17.90;;;;;;;2.14;100.00;101055.03;5112482;28;20051;-58
2023/12/06 02:34:29;;;;;;;26.63;18.17;;;;;;;2.22;100.00;101074.06;5111222;28;20030;-58
2023/12/06 02:37:01;;;;;;;29.38;17.15;;;;;;;2.23;100.00;101065.28;5112495;28;20023;-58
2023/12/06 02:39:36;;;;;;;25.80;16.17;;;;;;;2.24;100.00;101062.63;5100759;28;20023;-58
2023/12/06 02:42:02;;;;;;;25.02;16.45;;;;;;;2.26;100.00;101071.34;5109693;28;20514;-58
2023/12/06 02:44:27;;;;;;;26.05;17.33;;;;;;;2.20;100.00;101055.72;5101928;28;20114;-58
2023/12/06 02:46:54;;;;;;;26.70;16.88;;;;;;;2.27;100.00;101061.69;5099734;28;20031;-58
2023/12/06 02:49:19;;;;;;;29.50;17.60;;;;;;;2.29;100.00;101067.75;5112183;28;20035;-58
2023/12/06 02:51:45;;;;;;;27.17;16.45;;;;;;;2.29;100.00;101067.75;5101689;28;20033;-58
2023/12/06 02:54:10;;;;;;;20.60;15.15;;;;;;;2.26;100.00;101066.09;5100265;28;20028;-58
2023/12/06 02:56:36;;;;;;;24.85;15.27;;;;;;;2.24;100.00;101067.88;5111725;28;20022;-58
2023/12/06 02:59:01;;;;;;;27.40;16.70;;;;;;;2.27;100.00;101072.19;5111953;28;20023;-58
2023/12/06 03:01:29;;;;;;;28.67;17.20;;;;;;;2.28;100.00;101077.38;5111112;28;20782;-58
2023/12/06 03:03:54;;;;;;;25.42;16.75;;;;;;;2.29;100.00;101067.75;5108797;28;20480;-58
2023/12/06 03:06:20;;;;;;;24.42;15.45;;;;;;;2.30;100.00;101074.75;5110985;28;20130;-58
2023/12/06 03:08:45;;;;;;;32.30;18.25;;;;;;;2.31;100.00;101068.59;5081139;28;20434;-58
2023/12/06 03:11:10;;;;;;;30.08;17.35;;;;;;;2.31;100.00;101065.09;5111802;28;20030;-58
2023/12/06 03:13:36;;;;;;;28.00;17.33;;;;;;;2.33;100.00;101068.56;5096585;28;20490;-58
2023/12/06 03:16:01;;;;;;;26.52;17.08;;;;;;;2.33;100.00;101066.78;5110438;28;20035;-58
2023/12/06 03:18:27;;;;;;;23.20;15.30;;;;;;;2.32;100.00;101054.53;5101909;28;20069;-58
2023/12/06 03:20:52;;;;;;;26.08;16.77;;;;;;;2.26;100.00;101052.97;5111042;28;20020;-58
2023/12/06 03:23:18;;;;;;;34.25;16.55;;;;;;;2.34;100.00;101078.16;5111721;28;20475;-58
2023/12/06 03:25:43;;;;;;;28.20;17.30;;;;;;;2.33;100.00;101079.91;5111062;28;20476;-58
2023/12/06 03:28:09;;;;;;;23.88;16.50;;;;;;;2.33;100.00;101079.91;5111785;28;20035;-58
2023/12/06 03:30:35;;;;;;;28.02;17.25;;;;;;;2.25;100.00;101069.59;5100880;28;20472;-58
2023/12/06 03:33:03;;;;;;;23.20;16.25;;;;;;;2.36;100.00;101095.59;5101542;28;20117;-58
2023/12/06 03:35:28;;;;;;;23.55;15.85;;;;;;;2.35;100.00;101096.47;5110950;28;20055;-58
2023/12/06 03:37:54;;;;;;;25.70;15.52;;;;;;;2.34;100.00;101086.88;5110921;28;20055;-58
2023/12/06 03:40:20;;;;;;;25.50;16.83;;;;;;;2.37;100.00;101094.66;5111343;28;20070;-59
2023/12/06 03:42:45;;;;;;;24.17;15.95;;;;;;;2.36;100.00;101086.84;5111255;28;20023;-58
2023/12/06 03:45:12;;;;;;;25.25;16.20;;;;;;;2.39;100.00;101095.50;5102747;28;20062;-59
2023/12/06 03:47:38;;;;;;;23.77;17.00;;;;;;;2.39;100.00;101097.28;5111034;28;20360;-58
2023/12/06 03:50:04;;;;;;;29.52;15.70;;;;;;;2.44;100.00;101096.25;5111558;28;20088;-58
2023/12/06 03:52:30;;;;;;;26.02;15.75;;;;;;;2.45;100.00;101105.84;5102089;28;20027;-58
2023/12/06 03:54:56;;;;;;;21.25;16.05;;;;;;;2.45;100.00;101103.22;5111020;28;20042;-58
2023/12/06 03:57:21;;;;;;;25.63;16.98;;;;;;;2.47;100.00;101109.31;5120670;28;20035;-58
2023/12/06 03:59:47;;;;;;;22.30;15.85;;;;;;;2.47;100.00;101106.69;5110423;28;20027;-58
2023/12/06 04:02:15;;;;;;;26.38;16.35;;;;;;;2.47;100.00;101106.69;5110240;28;20031;-58
2023/12/06 04:04:41;;;;;;;21.95;15.57;;;;;;;2.48;100.00;101112.78;5110681;28;21659;-58
2023/12/06 04:07:06;;;;;;;20.90;15.73;;;;;;;2.48;100.00;101104.91;5110439;28;20138;-58
2023/12/06 04:09:31;;;;;;;25.67;15.25;;;;;;;2.48;100.00;101107.53;5111137;28;20028;-58
2023/12/06 04:11:57;;;;;;;30.63;16.25;;;;;;;2.50;100.00;101108.38;5110744;28;20106;-58
2023/12/06 04:14:22;;;;;;;22.88;15.77;;;;;;;2.48;100.00;101108.38;5110269;28;20468;-58
2023/12/06 04:16:49;;;;;;;24.48;16.40;;;;;;;2.46;100.00;101107.56;5110394;28;20110;-58
2023/12/06 04:19:15;;;;;;;23.10;15.68;;;;;;;2.53;100.00;101110.03;5110597;28;20028;-58
2023/12/06 04:21:43;;;;;;;23.17;16.02;;;;;;;2.51;100.00;101115.31;5110685;28;20046;-58
2023/12/06 04:24:09;;;;;;;23.77;15.75;;;;;;;2.53;100.00;101126.66;5110508;28;20024;-58
2023/12/06 04:26:35;;;;;;;22.88;15.32;;;;;;;2.54;100.00;101120.50;5112327;28;20441;-58
2023/12/06 04:29:00;;;;;;;24.55;15.35;;;;;;;2.52;100.00;101122.28;5103755;28;20062;-58
2023/12/06 04:31:25;;;;;;;28.00;17.08;;;;;;;2.54;100.00;101120.50;5100038;28;20031;-58
2023/12/06 04:33:51;;;;;;;25.15;17.02;;;;;;;2.56;100.00;101125.69;5114386;28;20058;-58
2023/12/06 04:36:16;;;;;;;28.00;18.02;;;;;;;2.59;100.00;101130.88;5104415;28;20028;-58
2023/12/06 04:38:45;;;;;;;20.27;15.57;;;;;;;2.58;100.00;101132.63;5104044;28;20459;-58
2023/12/06 04:41:10;;;;;;;23.88;17.20;;;;;;;2.62;100.00;101134.31;5099589;28;20027;-58
2023/12/06 04:43:38;;;;;;;25.58;15.98;;;;;;;2.64;100.00;101134.25;5113749;28;20031;-58
2023/12/06 04:46:03;;;;;;;22.10;16.27;;;;;;;2.68;100.00;101138.53;5103095;28;20035;-58
2023/12/06 04:48:29;;;;;;;25.23;17.05;;;;;;;2.67;100.00;101140.28;5114073;28;20101;-58
2023/12/06 04:50:57;;;;;;;23.02;16.60;;;;;;;2.70;100.00;101147.22;5106301;28;20539;-58
2023/12/06 04:53:25;;;;;;;27.27;15.95;;;;;;;2.69;100.00;101135.84;5113808;28;20562;-58
2023/12/06 04:55:51;;;;;;;23.92;16.83;;;;;;;2.67;100.00;101136.78;5113406;28;20020;-58
2023/12/06 04:58:16;;;;;;;25.48;16.77;;;;;;;2.69;100.00;101141.09;5114263;28;20023;-58
2023/12/06 05:00:43;;;;;;;24.27;17.05;;;;;;;2.69;100.00;101154.22;5113479;28;20028;-58
2023/12/06 05:03:09;;;;;;;22.42;14.63;;;;;;;2.70;100.00;101152.47;5113877;28;20032;-58
2023/12/06 05:05:34;;;;;;;25.00;16.10;;;;;;;2.70;100.00;101150.69;5100822;28;20028;-58
2023/12/06 05:08:00;;;;;;;25.48;17.05;;;;;;;2.71;100.00;101151.59;5098811;28;20043;-58
2023/12/06 05:10:25;;;;;;;23.90;16.30;;;;;;;2.70;100.00;101150.69;5113886;27;20039;-58
2023/12/06 05:12:50;;;;;;;28.30;17.83;;;;;;;2.71;100.00;101156.84;5113697;28;20027;-58
2023/12/06 05:15:16;;;;;;;27.77;18.83;;;;;;;2.69;100.00;101163.88;5112170;28;20032;-58
2023/12/06 05:17:41;;;;;;;28.40;17.92;;;;;;;2.72;100.00;101166.44;5113817;28;20027;-58
2023/12/06 05:20:09;;;;;;;24.98;16.65;;;;;;;2.73;100.00;101169.00;5113669;28;20020;-58
2023/12/06 05:22:35;;;;;;;24.50;16.70;;;;;;;2.71;100.00;101170.81;5113766;28;20094;-58
2023/12/06 05:25:00;;;;;;;26.45;16.92;;;;;;;2.72;100.00;101171.69;5113127;28;20448;-58
2023/12/06 05:27:26;;;;;;;29.67;16.88;;;;;;;2.65;100.00;101157.84;5113432;28;20027;-58
2023/12/06 05:29:51;;;;;;;29.77;17.17;;;;;;;2.74;100.00;101175.13;5112574;28;20051;-58
2023/12/06 05:32:16;;;;;;;27.17;18.60;;;;;;;2.72;100.00;101169.06;5113597;28;20502;-58
2023/12/06 05:34:44;;;;;;;25.80;17.80;;;;;;;2.75;100.00;101179.47;5112548;28;20042;-58
2023/12/06 05:37:10;;;;;;;30.08;18.27;;;;;;;2.76;100.00;101175.09;5113241;28;20416;-58
2023/12/06 05:39:36;;;;;;;34.70;18.75;;;;;;;2.76;100.00;101177.72;5100629;28;20050;-58
2023/12/06 05:42:03;;;;;;;33.55;19.20;;;;;;;2.77;100.00;101179.47;5104236;28;20027;-58
2023/12/06 05:44:30;;;;;;;26.85;17.92;;;;;;;2.78;100.00;101179.41;5111917;27;20019;-58
2023/12/06 05:46:56;;;;;;;26.42;17.25;;;;;;;2.75;100.00;101174.22;5112827;28;20059;-58
2023/12/06 05:49:22;;;;;;;31.20;18.13;;;;;;;2.78;100.00;101176.78;5086747;28;20046;-58
2023/12/06 05:51:47;;;;;;;31.58;19.30;;;;;;;2.76;100.00;101172.47;5086990;28;20027;-58
2023/12/06 05:54:13;;;;;;;27.10;18.02;;;;;;;2.79;100.00;101169.75;5113111;28;20023;-58
2023/12/06 05:56:38;;;;;;;27.02;17.88;;;;;;;2.84;100.00;101181.00;5112578;28;20050;-58
2023/12/06 05:59:04;;;;;;;28.33;18.88;;;;;;;2.86;100.00;101185.31;5112502;28;20027;-58
2023/12/06 06:01:29;;;;;;;25.67;16.25;;;;;;;2.88;100.00;101186.16;5100233;28;20066;-58
2023/12/06 06:03:54;;;;;;;30.08;17.40;;;;;;;2.88;100.00;101193.16;5101854;28;20046;-58
2023/12/06 06:06:20;;;;;;;27.00;18.17;;;;;;;2.84;100.00;101191.50;5112689;27;20047;-58
2023/12/06 06:08:45;;;;;;;26.92;17.42;;;;;;;2.84;100.00;101188.88;5103089;28;20034;-58
2023/12/06 06:11:10;;;;;;;28.65;17.60;;;;;;;2.90;100.00;101200.09;5111638;28;20034;-58
2023/12/06 06:13:36;;;;;;;32.55;18.85;;;;;;;2.90;100.00;101194.84;5112974;28;20033;-58
2023/12/06 06:16:01;;;;;;;27.17;17.27;;;;;;;2.91;100.00;101196.59;5111877;28;20533;-58
2023/12/06 06:18:27;;;;;;;28.05;17.35;;;;;;;2.94;100.00;101200.88;5112790;28;20049;-58
2023/12/06 06:20:55;;;;;;;27.58;15.90;;;;;;;2.91;100.00;101200.94;5103172;28;20023;-58
2023/12/06 06:23:21;;;;;;;30.75;17.27;;;;;;;2.92;100.00;101193.03;5100237;28;20020;-58
2023/12/06 06:25:46;;;;;;;30.42;16.45;;;;;;;2.98;100.00;101210.41;5111972;28;20028;-58
2023/12/06 06:28:12;;;;;;;27.77;17.35;;;;;;;2.92;100.00;101208.81;5112749;28;20019;-58
2023/12/06 06:30:40;;;;;;;25.13;16.42;;;;;;;3.01;100.00;101222.63;5112309;28;20024;-58
2023/12/06 06:33:05;;;;;;;23.65;15.55;;;;;;;3.01;100.00;101223.47;5098739;28;20043;-58
2023/12/06 06:35:31;;;;;;;22.63;15.02;;;;;;;2.98;100.00;101217.44;5112331;28;20077;-58
2023/12/06 06:37:56;;;;;;;23.13;15.18;;;;;;;3.04;100.00;101238.31;5098582;28;20579;-58
2023/12/06 06:40:24;;;;;;;22.88;15.38;;;;;;;3.02;100.00;101238.31;5111807;28;20027;-58
2023/12/06 06:42:50;;;;;;;21.35;14.73;;;;;;;3.04;100.00;101241.78;5112180;28;20019;-58
2023/12/06 06:45:15;;;;;;;22.45;14.95;;;;;;;3.04;100.00;101236.53;5111500;28;20020;-58
2023/12/06 06:47:41;;;;;;;23.58;14.52;;;;;;;3.04;100.00;101243.56;5101225;28;20403;-58
2023/12/06 06:50:07;;;;;;;25.48;15.15;;;;;;;3.01;100.00;101230.50;5111531;28;20058;-58
2023/12/06 06:52:33;;;;;;;24.05;16.13;;;;;;;3.03;100.00;101239.19;5111828;28;20023;-58
2023/12/06 06:54:58;;;;;;;29.08;15.70;;;;;;;3.04;100.00;101240.94;5110843;28;20027;-58
2023/12/06 06:57:24;;;;;;;21.27;14.95;;;;;;;3.05;100.00;101243.50;5111437;28;20019;-58
2023/12/06 06:59:49;;;;;;;27.35;16.48;;;;;;;3.03;100.00;101242.69;5111267;28;20015;-58
2023/12/06 07:02:16;;;;;;;26.42;15.18;;;;;;;3.06;100.00;101252.25;5111628;28;20023;-58
2023/12/06 07:04:42;;;;;;;28.08;16.15;;;;;;;3.04;100.00;101246.19;5099911;28;20475;-58
2023/12/06 07:07:07;;;;;;;24.48;15.55;;;;;;;3.06;100.00;101252.25;5111627;28;20047;-58
2023/12/06 07:09:35;;;;;;;22.77;15.23;;;;;;;3.05;100.00;101254.00;5111385;28;20442;-58
2023/12/06 07:12:01;;;;;;;26.08;16.08;;;;;;;3.07;100.00;101254.00;5097991;28;20035;-58
2023/12/06 07:14:26;;;;;;;26.88;16.35;;;;;;;3.09;100.00;101249.53;5110924;28;20025;-58
2023/12/06 07:16:53;;;;;;;23.90;16.42;;;;;;;3.09;100.00;101253.06;5100465;28;20015;-58
2023/12/06 07:19:19;;;;;;;24.60;15.93;;;;;;;3.09;100.00;101253.06;5103172;28;20065;-58
2023/12/06 07:21:45;;;;;;;23.60;15.35;;;;;;;3.10;100.00;101254.75;5101000;28;20718;-58
2023/12/06 07:24:11;;;;;;;23.60;15.52;;;;;;;3.11;100.00;101258.25;5110685;28;20020;-58
2023/12/06 07:26:37;;;;;;;26.17;15.45;;;;;;;3.11;100.00;101260.88;5112053;27;20071;-58
2023/12/06 07:29:02;;;;;;;24.00;15.60;;;;;;;3.10;100.00;101257.41;5111247;28;20031;-58
2023/12/06 07:31:28;;;;;;;20.90;15.40;;;;;;;3.09;100.00;101260.03;5110755;28;20030;-58
2023/12/06 07:33:53;;;;;;;27.83;15.73;;;;;;;3.11;100.00;101260.88;5110809;28;20463;-58
2023/12/06 07:36:19;;;;;;;24.80;16.30;;;;;;;3.08;100.00;101260.97;5098072;28;20024;-58
2023/12/06 07:38:44;;;;;;;25.52;16.75;;;;;;;3.06;100.00;101266.28;5111265;28;20015;-58
2023/12/06 07:41:09;;;;;;;26.25;17.30;;;;;;;3.07;100.00;101282.91;5110693;28;20051;-58
2023/12/06 07:43:36;;;;;;;24.50;17.23;;;;;;;3.02;100.00;101274.25;5111432;28;20124;-58
2023/12/06 07:46:02;;;;;;;29.00;15.80;;;;;;;2.96;100.00;101275.25;5108776;28;20019;-58
2023/12/06 07:48:33;;;;;;;26.65;16.85;;;;;;;2.91;100.00;101274.50;5111169;28;20468;-58
2023/12/06 07:51:01;;;;;;;24.67;17.42;;;;;;;2.88;100.00;101278.09;5097467;28;20103;-58
2023/12/06 07:53:27;;;;;;;25.10;14.82;;;;;;;2.85;100.00;101286.03;5101499;28;20035;-58
2023/12/06 07:55:55;;;;;;;31.52;17.20;;;;;;;2.79;100.00;101282.69;5099732;28;20396;-58
2023/12/06 07:58:22;;;;;;;25.58;16.60;;;;;;;2.76;100.00;101294.13;5108332;28;20018;-58
2023/12/06 08:00:48;;;;;;;24.38;15.38;;;;;;;2.74;100.00;101293.31;5096560;28;20027;-58
2023/12/06 08:03:14;;;;;;;26.10;16.80;;;;;;;2.70;100.00;101296.91;5115084;28;20383;-58
2023/12/06 08:05:39;;;;;;;24.73;16.30;;;;;;;2.68;100.00;101302.19;5100885;28;20026;-58
2023/12/06 08:08:05;;;;;;;28.05;15.73;;;;;;;2.64;100.00;101289.16;5101536;28;20171;-58
2023/12/06 08:10:33;;;;;;;26.88;16.65;;;;;;;2.63;100.00;101305.81;5114828;28;20029;-58
2023/12/06 08:12:58;;;;;;;25.65;16.55;;;;;;;2.61;100.00;101307.63;5115324;28;20030;-58
2023/12/06 08:15:24;;;;;;;29.30;16.17;;;;;;;2.55;100.00;101299.88;5114687;28;20020;-58
2023/12/06 08:17:50;;;;;;;22.95;15.93;;;;;;;2.55;100.00;101305.13;5114606;28;20391;-58
2023/12/06 08:20:15;;;;;;;28.70;16.90;;;;;;;2.50;100.00;101300.00;5114823;28;20064;-58
2023/12/06 08:22:41;;;;;;;21.77;14.75;;;;;;;2.55;100.00;101313.00;5101767;28;20020;-58
2023/12/06 08:25:07;;;;;;;24.45;15.90;;;;;;;2.55;100.00;101307.75;5114947;28;20020;-58
2023/12/06 08:27:34;;;;;;;31.98;15.80;;;;;;;2.56;100.00;101312.09;5127670;27;20034;-58
2023/12/06 08:30:00;;;;;;;27.02;16.25;;;;;;;2.54;100.00;101314.78;5105549;28;20120;-58
2023/12/06 08:32:27;;;;;;;24.60;15.93;;;;;;;2.58;100.00;101319.03;5115424;28;20107;-58
2023/12/06 08:34:53;;;;;;;23.10;15.83;;;;;;;2.60;100.00;101321.66;5112994;28;20051;-58
2023/12/06 08:37:19;;;;;;;23.90;16.00;;;;;;;2.62;100.00;101322.50;5114519;28;20103;-58
2023/12/06 08:39:45;;;;;;;23.50;14.60;;;;;;;2.64;100.00;101315.44;5111440;28;20114;-58
2023/12/06 08:42:14;;;;;;;26.33;16.30;;;;;;;2.64;100.00;101326.78;5114123;28;20417;-58
2023/12/06 08:44:40;;;;;;;24.83;15.75;;;;;;;2.67;100.00;101333.72;5103284;28;20027;-58
2023/12/06 08:47:06;;;;;;;25.48;14.45;;;;;;;2.70;100.00;101336.28;5114471;28;20027;-58
2023/12/06 08:49:32;;;;;;;26.02;15.45;;;;;;;2.72;100.00;101339.75;5109500;27;20030;-58
2023/12/06 08:51:58;;;;;;;24.73;16.40;;;;;;;2.75;100.00;101346.69;5113461;28;20471;-59
2023/12/06 08:54:23;;;;;;;22.35;15.68;;;;;;;2.78;100.00;101351.88;5107484;28;20035;-58
2023/12/06 08:56:48;;;;;;;30.75;16.83;;;;;;;2.78;100.00;101338.75;5113600;27;20028;-59
2023/12/06 08:59:16;;;;;;;27.73;16.15;;;;;;;2.84;100.00;101355.22;5103595;28;20556;-58
2023/12/06 09:01:44;;;;;;;29.08;15.52;;;;;;;2.88;100.00;101361.28;5096250;28;20032;-58
2023/12/06 09:04:09;;;;;;;26.30;16.63;;;;;;;2.93;100.00;101359.41;5102016;28;20019;-58
2023/12/06 09:06:35;;;;;;;25.33;15.82;;;;;;;2.96;100.00;101362.81;5113579;28;20047;-58
2023/12/06 09:09:03;;;;;;;23.75;16.35;;;;;;;2.96;100.00;101354.94;5113408;28;20134;-58
2023/12/06 09:11:29;;;;;;;26.88;15.38;;;;;;;2.97;100.00;101361.06;5113349;28;20540;-58
2023/12/06 09:13:54;;;;;;;21.60;13.95;;;;;;;3.07;100.00;101364.34;5113499;28;20039;-58
2023/12/06 09:16:21;;;;;;;31.45;16.10;;;;;;;3.06;100.00;101355.59;5110264;28;20027;-58
2023/12/06 09:18:46;;;;;;;25.25;16.33;;;;;;;3.15;100.00;101367.66;5113662;28;20084;-58
2023/12/06 09:21:13;;;;;;;29.15;15.80;;;;;;;3.22;100.00;101365.75;5111583;27;20016;-58
2023/12/06 09:23:39;;;;;;;24.85;16.35;;;;;;;3.26;100.00;101370.88;5113721;28;20084;-58
2023/12/06 09:26:04;;;;;;;23.20;12.95;;;;;;;3.35;100.00;101368.03;5098715;28;20023;-58
2023/12/06 09:28:30;;;;;;;21.90;13.82;;;;;;;3.38;100.00;101365.34;5113376;28;20031;-58
2023/12/06 09:30:55;;;;;;;24.35;13.52;;;;;;;3.46;100.00;101369.53;5112939;27;20024;-58
2023/12/06 09:33:21;;;;;;;19.70;14.55;;;;;;;3.49;100.00;101378.19;5112664;28;20051;-59
2023/12/06 09:35:48;;;;;;;20.65;14.57;;;;;;;3.53;100.00;101378.97;5112967;28;20697;-58
2023/12/06 09:38:14;;;;;;;26.60;15.15;;;;;;;3.64;100.00;101376.94;5104795;28;20023;-58
2023/12/06 09:40:40;;;;;;;23.73;14.40;;;;;;;3.75;100.00;101387.19;5112517;27;20471;-58
2023/12/06 09:43:05;;;;;;;20.80;13.50;;;;;;;3.90;100.00;101393.81;5112390;28;20035;-58
2023/12/06 09:45:31;;;;;;;23.48;13.77;;;;;;;4.04;100.00;101394.31;5100630;28;20030;-58
2023/12/06 09:47:57;;;;;;;23.50;13.80;;;;;;;4.10;100.00;101392.38;5112915;28;20039;-58
2023/12/06 09:50:25;;;;;;;22.25;13.10;;;;;;;4.17;100.00;101403.59;5112170;27;20410;-58
2023/12/06 09:52:52;;;;;;;26.63;13.50;;;;;;;4.23;100.00;101403.41;5112689;27;20034;-58
2023/12/06 09:55:19;;;;;;;18.85;13.07;;;;;;;4.27;100.00;101404.22;5112251;28;20024;-58
2023/12/06 09:57:46;;;;;;;27.95;12.88;;;;;;;4.30;100.00;101410.25;5112770;28;20368;-58
2023/12/06 10:00:13;;;;;;;25.15;13.50;;;;;;;4.37;100.00;101416.19;5094397;28;20031;-58
2023/12/06 10:02:57;;;;;;;23.55;12.95;;;;;;;4.41;100.00;101412.59;5114130;28;20035;-58
2023/12/06 10:05:22;;;;;;;21.38;12.48;;;;;;;4.48;100.00;101405.38;5113284;28;20028;-58
2023/12/06 10:07:48;;;;;;;19.05;12.05;;;;;;;4.56;100.00;101416.56;5113055;27;20420;-58
2023/12/06 10:10:22;;;;;;;21.45;11.35;;;;;;;4.66;100.00;101411.88;5094421;28;20031;-58
2023/12/06 10:12:52;;;;;;;20.42;12.27;;;;;;;4.77;100.00;101415.91;5112910;28;20446;-58
2023/12/06 10:15:18;;;;;;;17.50;11.23;;;;;;;4.81;100.00;101400.88;5112424;28;20059;-58
2023/12/06 10:17:44;;;;;;;22.00;12.48;;;;;;;5.02;100.00;101412.53;5112991;28;20088;-58
2023/12/06 10:20:10;;;;;;;18.75;11.75;;;;;;;5.17;100.00;101414.69;5077235;28;20047;-58
2023/12/06 10:22:36;;;;;;;16.95;12.15;;;;;;;5.17;100.00;101409.41;5095000;28;20067;-58
2023/12/06 10:25:05;;;;;;;17.05;11.95;;;;;;;5.31;100.00;101416.88;5093596;28;20020;-58
2023/12/06 10:27:30;;;;;;;16.85;10.55;;;;;;;5.39;100.00;101417.50;5112202;28;20535;-58
2023/12/06 10:29:56;;;;;;;19.30;10.98;;;;;;;5.45;100.00;101408.53;5092881;27;20107;-58
2023/12/06 10:32:22;;;;;;;18.05;11.27;;;;;;;5.47;100.00;101420.78;5109225;27;20027;-58
2023/12/06 10:34:48;;;;;;;19.13;11.95;;;;;;;5.48;100.00;101421.63;5090595;28;20063;-58
2023/12/06 10:37:19;;;;;;;21.08;12.15;;;;;;;5.39;100.00;101406.97;5107671;28;20058;-58
2023/12/06 10:39:48;;;;;;;14.98;10.85;;;;;;;5.38;100.00;101415.78;5112285;28;20433;-58
2023/12/06 10:42:17;;;;;;;22.88;10.63;;;;;;;5.34;100.00;101413.28;5112342;28;20556;-58
2023/12/06 10:44:43;;;;;;;15.00;11.23;;;;;;;5.28;100.00;101405.59;5093834;28;20479;-58
2023/12/06 10:47:11;;;;;;;19.08;10.93;;;;;;;5.29;100.00;101410.78;5112140;28;20023;-58
2023/12/06 10:49:37;;;;;;;16.85;11.02;;;;;;;5.26;100.00;101407.41;5082681;28;20027;-58
2023/12/06 10:52:04;;;;;;;21.80;10.65;;;;;;;5.23;100.00;101403.97;5112314;28;20020;-58
2023/12/06 10:54:33;;;;;;;15.05;10.05;;;;;;;5.25;100.00;101411.81;5093091;28;20391;-58
2023/12/06 10:57:01;;;;;;;20.33;11.50;;;;;;;5.26;100.00;101408.25;5109537;27;20102;-58
2023/12/06 10:59:28;;;;;;;17.02;10.35;;;;;;;5.27;100.00;101404.72;5108314;28;20137;-58
2023/12/06 11:01:57;;;;;;;20.02;10.45;;;;;;;5.30;100.00;101407.25;5100188;28;20027;-58
2023/12/06 11:04:25;;;;;;;16.02;9.95;;;;;;;5.35;100.00;101407.94;5112102;28;20011;-58